SKRGSKBQ

Guest
Details From SKRG - JOSE MARIA CORDOVA
To SKBQ - Ernesto Cortissoz
Flight Number -
Tags generated
Created
Modified
Stats Distance 288 nm / 533 km
Max Altitude 33,700 ft / 10,272 m
Waypoints 4
Social Downloads 0
Likes 0
Share VATSIM

Download

Looking for another format? Having issues loading an existing format? Contact us
Advertisement - Login to hide

Notes

Basic altitude profile: - Ascent Rate: 2000ft/min - Ascent Speed: 250kts - Cruise Altitude: 210ft - Cruise Speed: 320kts - Descent Rate: 1000ft/min - Descent Speed: 200kts Options: - Use NATs: yes - Use PACOTS: yes - Use low airways: yes - Use high airways: yes

Route

SKRG ROPIN W3 MGN SKBQ

ID Type Via Altitude (ft/m) Position (lat/lon) Dist (leg/tot) Name
O SKRG APT - 0 / 0 6.16453 / -75.42312 - / 0 nm JOSE MARIA CORDOVA
ROPIN FIX - 33,700 / 10,272 7.68528 / -75.00889 94 / 94 nm
MGN VOR W3 (AWY-LO) 20,600 / 6,279 9.28722 / -74.84694 96 / 191 nm MAGANGUE VOR-DME
O SKBQ APT - 0 / 0 10.88959 / -74.78082 96 / 287 nm Ernesto Cortissoz

Altitude Profile

Advertisement - Login to hide

Weather


0- 5 10 15 20 25 30 35+ Temperature / °C

Clouds and Precipitation
Forecast for 2018-10-20 18:00 UTC. Updated 15 minutes ago

Ground ~20,000 ft ~40,000 ft Winds

SKRG

Details ICAO SKRG (MDE)
Name Jose Maria Cordova Int'l
Region Colombia
Timezone America/Bogota (UTC-5.0)
Stats Elevation 6,955 ft / 2,120 m (AMSL)
Location 6.164530° -75.423100°
Runways 1
Magnetic Variation 6.752° W

METAR

SKRG 201500Z 00000KT 9999 SCT015 19/13 A3030

Decode

TAF

Not found

Departure Runways

ID Width Length Bearing (true/mag) Surface Threshold Overrun Markings Lighting
01 148 ft / 45 m 11,494 ft / 3,503 m 359.62° / 6.37° ASPHALT 0 ft / 0 m 0 ft / 0 m APP EDGE THRESHOLD
19 148 ft / 45 m 11,494 ft / 3,503 m 179.62° / 186.37° ASPHALT 0 ft / 0 m 0 ft / 0 m PREC-APP EDGE THRESHOLD ALSF-I

SKBQ

Details ICAO SKBQ (BAQ)
Name Ernesto Cortissoz Int'l
Region Colombia
Timezone America/Bogota (UTC-5.0)
Stats Elevation 98 ft / 30 m (AMSL)
Location 10.889600° -74.780800°
Runways 1
Magnetic Variation 7.835° W

METAR

SKBQ 201500Z VRB02KT 9999 SCT015 30/25 A2986

Decode

TAF

Not found

Destination Runways

ID Width Length Bearing (true/mag) Surface Threshold Overrun Markings Lighting
05 148 ft / 45 m 9,852 ft / 3,003 m 40.11° / 47.95° CONCRETE 0 ft / 0 m 128 ft / 39 m PREC-APP CENTERLINE EDGE THRESHOLD ALSF-I TDZ
23 148 ft / 45 m 9,852 ft / 3,003 m 220.12° / 227.95° CONCRETE 0 ft / 0 m 551 ft / 168 m PREC-APP CENTERLINE EDGE THRESHOLD ALSF-I TDZ

Approach Navaids

Runway Type Ident Frequency Range Bearing (true/mag) Slope Elevation
05 MM MM - - 40.09° / 47.93 ° - 295 ft / 90 m (AMSL)
05 LOC-ILS IBAQ 109.90 MHz 18 nm / 33 km 39.98° / 47.82 ° - 98 ft / 30 m (AMSL)
05 GS IBAQ 109.90 MHz 10 nm / 19 km 40.18° / 48.02 ° 3.00° 98 ft / 30 m (AMSL)

Popular Alternatives